Flight Track Log - Related Links

Times and Time Zones

All times are in EST time to prevent confusion due to time zone crossing. See the N633WC flight status page for this flight to view local times or setup timezone preferences in your user account.

Time Position Orientation Groundspeed Altitude Reporting Facility
EST Latitude Longitude Course Direction KTS MPH feet Rate Location/Type
Fri 03:16:16 PM 31.8711 -102.1108 20° North 161 185 6,800  Level Fort Worth Center
Fri 03:17:18 PM 31.9061 -102.0708 44° Northeast 188 216 7,500 871 Climbing Fort Worth Center
Fri 03:18:20 PM 31.9572 -102.0547 15° North 192 221 8,600 1,113 Climbing Fort Worth Center
Fri 03:19:00 PM 32.1941 -102.1053 23° Northeast  Level Estimated
Fri 03:19:22 PM 32.0153 -102.0347 16° North 187 215 9,800  Level Fort Worth Center
Fri 03:20:00 PM 32.2444 -102.0860 18° North  Level Estimated
Fri 03:20:24 PM 32.0622 -102.0186 16° North 180 207 10,500  Level Fort Worth Center
Fri 03:21:00 PM 32.2942 -102.0647 20° North  Level FlightAware Approximate
Fri 03:21:26 PM 32.1122 -101.9989 18° North 184 212 11,200  Level Fort Worth Center
Fri 03:22:28 PM 32.1614 -101.9808 17° North 187 215 12,000 774 Climbing Fort Worth Center
Fri 03:23:30 PM 32.2097 -101.9614 19° North 184 212 12,800 774 Climbing Fort Worth Center
Fri 03:24:32 PM 32.2581 -101.9444 17° North 184 212 13,600 871 Climbing Fort Worth Center
Fri 03:25:34 PM 32.3167 -101.9206 19° North 186 214 14,600 871 Climbing Fort Worth Center
Fri 03:26:36 PM 32.3644 -101.9044 16° North 182 209 15,400 726 Climbing Fort Worth Center
Fri 03:27:38 PM 32.4142 -101.8875 16° North 185 213 16,100 677 Climbing Fort Worth Center
Fri 03:28:40 PM 32.4642 -101.8689 17° North 188 216 16,800 672 Climbing Fort Worth Center
Fri 03:29:43 PM 32.5133 -101.8503 18° North 187 215 17,500 624 Climbing Fort Worth Center
Fri 03:30:45 PM 32.5728 -101.8275 18° North 188 216 18,100 581 Climbing Fort Worth Center
Fri 03:31:47 PM 32.6217 -101.8089 18° North 186 214 18,700 435 Climbing Fort Worth Center
Fri 03:32:49 PM 32.6717 -101.7925 15° North 186 214 19,000 145 Climbing Fort Worth Center
Fri 03:33:51 PM 32.7244 -101.7700 20° North 201 231 19,000  Level Fort Worth Center
Fri 03:34:53 PM 32.7911 -101.7447 18° North 210 242 19,000  Level Fort Worth Center
Fri 03:35:55 PM 32.8467 -101.7231 18° North 211 243 19,000  Level Fort Worth Center
Fri 03:36:57 PM 32.9028 -101.7017 18° North 213 245 19,000  Level Fort Worth Center
Fri 03:37:59 PM 32.9644 -101.6783 18° North 213 245 19,000  Level Fort Worth Center
Fri 03:39:01 PM 33.0247 -101.6542 19° North 213 245 19,000  Level Fort Worth Center
Fri 03:40:03 PM 33.0817 -101.6319 18° North 215 247 19,000  Level Fort Worth Center
Fri 03:41:05 PM 33.1425 -101.6094 17° North 213 245 19,000  Level Fort Worth Center
Fri 03:42:08 PM 33.1983 -101.5875 18° North 212 244 19,000  Level Fort Worth Center
Fri 03:43:10 PM 33.2597 -101.5661 16° North 215 247 19,000  Level Fort Worth Center
Fri 03:44:12 PM 33.3164 -101.5447 18° North 214 246 19,000  Level Fort Worth Center
Fri 03:45:14 PM 33.3731 -101.5233 17° North 213 245 19,000  Level Fort Worth Center
Fri 03:46:16 PM 33.4350 -101.4989 18° North 218 251 19,000  Level Fort Worth Center
Fri 03:47:18 PM 33.4931 -101.4778 17° North 219 252 19,000  Level Fort Worth Center
Fri 03:48:20 PM 33.5522 -101.4536 19° North 212 244 19,000  Level Fort Worth Center
Fri 03:49:53 PM 33.6364 -101.4203 18° North 215 247 19,000  Level Albuquerque Center
Fri 03:50:24 PM 33.6708 -101.4092 15° North 213 245 19,000  Level Fort Worth Center
Fri 03:51:26 PM 33.7272 -101.3875 18° North 213 245 19,000  Level Fort Worth Center
Fri 03:52:28 PM 33.7881 -101.3644 17° North 213 245 19,000  Level Fort Worth Center
Fri 03:53:31 PM 33.8450 -101.3431 17° North 214 246 19,000  Level Fort Worth Center
Fri 03:54:33 PM 33.9047 -101.3200 18° North 209 241 19,000  Level Fort Worth Center
Fri 03:55:35 PM 33.9606 -101.2989 17° North 211 243 19,000  Level Fort Worth Center
Fri 03:56:37 PM 34.0208 -101.2764 17° North 212 244 19,000  Level Fort Worth Center
Fri 03:58:10 PM 34.0994 -101.2422 20° North 209 241 19,000  Level Albuquerque Center
Fri 03:58:41 PM 34.1308 -101.2325 14° North 210 242 19,000  Level Fort Worth Center
Fri 03:59:44 PM 34.1903 -101.2083 19° North 210 242 19,000  Level Fort Worth Center
Fri 04:00:46 PM 34.2461 -101.1867 18° North 211 243 19,000  Level Fort Worth Center
Fri 04:01:48 PM 34.3061 -101.1642 17° North 208 239 19,000  Level Fort Worth Center
Fri 04:02:50 PM 34.3542 -101.1428 20° North 210 242 19,000  Level Fort Worth Center
Fri 04:03:20 PM 34.3872 -101.1294 18° North 207 238 19,000  Level Albuquerque Center
Fri 04:04:22 PM 34.4431 -101.1092 17° North 209 241 19,000  Level Albuquerque Center
Fri 04:05:24 PM 34.4983 -101.0872 18° North 209 241 19,000  Level Albuquerque Center
Fri 04:06:26 PM 34.5525 -101.0664 18° North 208 239 19,000  Level Albuquerque Center
Fri 04:07:28 PM 34.6175 -101.0400 18° North 206 237 19,000  Level Albuquerque Center
Fri 04:08:30 PM 34.6719 -101.0200 17° North 205 236 19,000  Level Albuquerque Center
Fri 04:09:33 PM 34.7267 -100.9992 17° North 206 237 19,000  Level Albuquerque Center
Fri 04:10:35 PM 34.7814 -100.9772 18° North 206 237 19,000  Level Albuquerque Center
Fri 04:11:37 PM 34.8364 -100.9550 18° North 208 239 19,000  Level Albuquerque Center
Fri 04:12:39 PM 34.9022 -100.9292 18° North 208 239 19,000  Level Albuquerque Center
Fri 04:13:41 PM 34.9572 -100.9081 17° North 208 239 19,000  Level Albuquerque Center
Fri 04:14:43 PM 35.0117 -100.8850 19° North 208 239 19,000  Level Albuquerque Center
Fri 04:15:45 PM 35.0661 -100.8636 18° North 207 238 19,000  Level Albuquerque Center
Fri 04:16:47 PM 35.1203 -100.8425 18° North 205 236 19,000  Level Albuquerque Center
Fri 04:17:49 PM 35.1850 -100.8158 19° North 205 236 19,000  Level Albuquerque Center
Fri 04:18:51 PM 35.2397 -100.7942 18° North 207 238 19,000  Level Albuquerque Center
Fri 04:19:53 PM 35.2950 -100.7731 17° North 208 239 19,000  Level Albuquerque Center
Fri 04:20:55 PM 35.3483 -100.7508 19° North 206 237 19,000  Level Albuquerque Center
Fri 04:21:57 PM 35.4014 -100.7306 17° North 202 232 19,000  Level Albuquerque Center
Fri 04:22:59 PM 35.4550 -100.7100 17° North 202 232 19,000  Level Albuquerque Center
Fri 04:24:01 PM 35.5192 -100.6833 19° North 203 234 19,000  Level Albuquerque Center
Fri 04:25:04 PM 35.5719 -100.6619 18° North 202 232 19,000  Level Albuquerque Center
Fri 04:26:06 PM 35.6264 -100.6383 19° North 205 236 19,000  Level Albuquerque Center
Fri 04:27:08 PM 35.6769 -100.6161 20° North 204 235 19,000  Level Albuquerque Center
Fri 04:28:10 PM 35.7319 -100.5933 19° North 205 236 19,000  Level Albuquerque Center
Fri 04:29:12 PM 35.7947 -100.5683 18° North 200 230 19,000  Level Albuquerque Center
Fri 04:30:14 PM 35.8506 -100.5467 17° North 204 235 19,000  Level Albuquerque Center
Fri 04:31:16 PM 35.9064 -100.5236 18° North 208 239 19,000  Level Albuquerque Center
Fri 04:32:18 PM 35.9631 -100.5003 18° North 210 242 19,000  Level Albuquerque Center
Fri 04:33:20 PM 36.0178 -100.4781 18° North 209 241 19,000  Level Albuquerque Center
Fri 04:34:22 PM 36.0744 -100.4547 18° North 211 243 19,000  Level Albuquerque Center
Fri 04:35:16 PM 36.1308 -100.4322 18° North 208 239 19,000  Level Kansas City Center
Fri 04:36:16 PM 36.1867 -100.4106 17° North 209 241 19,000  Level Kansas City Center
Fri 04:37:20 PM 36.2419 -100.3864 19° North 209 241 19,000  Level Kansas City Center
Fri 04:38:21 PM 36.2958 -100.3647 18° North 205 236 19,000  Level Kansas City Center
Fri 04:39:25 PM 36.3497 -100.3431 18° North 203 234 19,000  Level Kansas City Center
Fri 04:40:25 PM 36.4031 -100.3217 18° North 201 231 19,000  Level Kansas City Center
Fri 04:41:29 PM 36.4564 -100.3000 18° North 201 231 19,000  Level Kansas City Center
Fri 04:42:30 PM 36.5206 -100.2739 18° North 201 231 19,000  Level Kansas City Center
Fri 04:43:31 PM 36.5739 -100.2531 17° North 200 230 19,000  Level Kansas City Center
Fri 04:44:34 PM 36.6261 -100.2300 20° North 199 229 19,000  Level Kansas City Center
Fri 04:45:37 PM 36.6808 -100.2078 18° North 203 234 19,000  Level Kansas City Center
Fri 04:46:39 PM 36.7339 -100.1850 19° North 201 231 19,000  Level Kansas City Center
Fri 04:47:40 PM 36.7950 -100.1603 18° North 203 234 19,000  Level Kansas City Center
Fri 04:48:41 PM 36.8464 -100.1400 18° North 203 234 19,000  Level Kansas City Center
Fri 04:49:43 PM 36.9083 -100.1142 18° North 207 238 19,000  Level Kansas City Center
Fri 04:50:46 PM 36.9642 -100.0908 18° North 208 239 19,000 48 Level Kansas City Center
Fri 04:51:49 PM 37.0225 -100.0669 18° North 209 241 19,100  Climbing Kansas City Center
Fri 04:52:49 PM 37.0750 -100.0436 20° North 209 241 19,000 -48 Descending Kansas City Center
Fri 04:53:54 PM 37.1372 -100.0172 19° North 211 243 19,000  Level Kansas City Center
Fri 04:54:55 PM 37.1894 -99.9947 19° North 209 241 19,000  Level Kansas City Center
Fri 04:55:55 PM 37.2536 -99.9689 18° North 214 246 19,000  Level Kansas City Center
Fri 04:56:59 PM 37.3064 -99.9450 20° North 213 245 19,000  Level Kansas City Center
Fri 04:58:00 PM 37.3661 -99.9211 18° North 206 237 19,000  Level Kansas City Center
Fri 04:59:03 PM 37.4169 -99.8978 20° North 204 235 19,000  Level Kansas City Center
Fri 05:00:07 PM 37.4750 -99.8744 18° North 199 229 19,000  Level Kansas City Center
Fri 05:01:10 PM 37.5258 -99.8528 19° North 200 230 19,000  Level Kansas City Center
Fri 05:02:11 PM 37.5836 -99.8286 18° North 198 228 19,000  Level Kansas City Center
Fri 05:03:12 PM 37.6339 -99.8069 19° North 199 229 19,000  Level Kansas City Center
Fri 05:04:16 PM 37.6922 -99.7822 19° North 199 229 19,000  Level Kansas City Center
Fri 05:05:17 PM 37.7439 -99.7606 18° North 202 232 19,000  Level Kansas City Center
Fri 05:06:21 PM 37.8019 -99.7342 20° North 201 231 19,000  Level Kansas City Center
Fri 05:07:21 PM 37.8525 -99.7128 18° North 201 231 19,000  Level Kansas City Center
Fri 05:08:25 PM 37.9106 -99.6872 19° North 198 228 19,000  Level Kansas City Center
Fri 05:09:26 PM 37.9608 -99.6656 19° North 199 229 19,000  Level Kansas City Center
Fri 05:10:27 PM 38.0203 -99.6400 19° North 201 231 19,000  Level Kansas City Center
Fri 05:11:30 PM 38.0717 -99.6175 19° North 203 234 19,000  Level Kansas City Center
Fri 05:12:31 PM 38.1311 -99.5922 18° North 202 232 19,000  Level Kansas City Center
Fri 05:13:35 PM 38.1819 -99.5697 19° North 202 232 19,000  Level Kansas City Center
Fri 05:14:37 PM 38.2414 -99.5428 20° North 204 235 19,000  Level Kansas City Center
Fri 05:15:37 PM 38.2922 -99.5214 18° North 203 234 19,000  Level Kansas City Center
Fri 05:16:41 PM 38.3439 -99.5000 18° North 203 234 19,000  Level Kansas City Center
Fri 05:17:42 PM 38.4025 -99.4739 19° North 200 230 19,000  Level Kansas City Center
Fri 05:18:43 PM 38.4542 -99.4508 19° North 204 235 19,000  Level Kansas City Center
Fri 05:19:48 PM 38.5142 -99.4233 20° North 205 236 19,000  Level Kansas City Center
Fri 05:20:48 PM 38.5678 -99.4028 17° North 209 241 19,000  Level Kansas City Center
Fri 05:21:51 PM 38.6272 -99.3750 20° North 205 236 19,000  Level Kansas City Center
Fri 05:22:52 PM 38.6789 -99.3544 17° North 203 234 19,000  Level Kansas City Center
Fri 05:23:54 PM 38.7375 -99.3258 21° North 203 234 19,000  Level Kansas City Center
Fri 05:24:57 PM 38.7886 -99.3042 18° North 202 232 19,000  Level Kansas City Center
Fri 05:25:58 PM 38.8483 -99.2786 18° North 202 232 19,000  Level Kansas City Center
Fri 05:27:02 PM 38.8992 -99.2542 21° North 203 234 19,000  Level Kansas City Center
Fri 05:28:02 PM 38.9586 -99.2289 18° North 203 234 19,000  Level Kansas City Center
Fri 05:29:06 PM 39.0119 -99.2075 17° North 202 232 19,000  Level Kansas City Center
Fri 05:30:06 PM 39.0658 -99.1822 20° North 198 228 19,000  Level Kansas City Center
Fri 05:31:08 PM 39.1197 -99.1592 18° North 196 226 19,000  Level Kansas City Center
Fri 05:31:38 PM 39.1419 -99.1494 19° North 196 226 19,000  Level Denver Center
Fri 05:32:40 PM 39.1933 -99.1247 20° North 192 221 19,000  Level Denver Center
Fri 05:33:14 PM 39.2253 -99.1117 18° North 192 221 19,000  Level Kansas City Center
Fri 05:34:14 PM 39.2803 -99.0878 19° North 198 228 19,000  Level Kansas City Center
Fri 05:35:18 PM 39.3328 -99.0647 19° North 193 222 19,000  Level Kansas City Center
Fri 05:36:19 PM 39.3833 -99.0419 19° North 198 228 19,000  Level Kansas City Center
Fri 05:37:20 PM 39.4361 -99.0183 19° North 195 224 19,000  Level Kansas City Center
Fri 05:38:03 PM 39.4686 -99.0011 22° Northeast 193 222 19,000  Level Denver Center
Fri 05:39:05 PM 39.5194 -98.9789 19° North 192 221 19,000  Level Denver Center
Fri 05:40:19 PM 39.5708 -98.9544 20° North 196 226 19,000  Level Denver Center
Fri 05:41:21 PM 39.6417 -98.9244 18° North 191 220 19,000  Level Denver Center
Fri 05:42:23 PM 39.6917 -98.9008 20° North 191 220 19,000  Level Denver Center
Fri 05:43:25 PM 39.7425 -98.8767 20° North 193 222 19,000  Level Denver Center
Fri 05:44:27 PM 39.7936 -98.8547 18° North 194 223 19,000  Level Denver Center
Fri 05:45:26 PM 39.8436 -98.8308 20° North 191 220 19,000  Level Minneapolis Center
Fri 05:46:32 PM 39.8956 -98.8078 19° North 194 223 19,000  Level Denver Center
Fri 05:47:29 PM 39.9453 -98.7850 19° North 192 221 19,000  Level Minneapolis Center
Fri 05:48:31 PM 39.9958 -98.7611 20° North 192 221 19,000  Level Minneapolis Center
Fri 05:49:33 PM 40.0572 -98.7328 19° North 193 222 19,000 -341 Level Minneapolis Center
Fri 05:50:34 PM 40.1100 -98.7094 19° North 198 228 18,300 -732 Descending Minneapolis Center
Fri 05:51:36 PM 40.1681 -98.6825 20° North 215 247 17,500 -774 Descending Minneapolis Center
Fri 05:52:38 PM 40.2258 -98.6558 19° North 220 253 16,700 -968 Descending Minneapolis Center
Fri 05:53:40 PM 40.2831 -98.6289 20° North 219 252 15,500 -1,161 Descending Minneapolis Center
Fri 05:54:42 PM 40.3428 -98.6014 19° North 224 258 14,300 -1,016 Descending Minneapolis Center
Fri 05:55:44 PM 40.4014 -98.5747 19° North 224 258 13,400 -1,024 Descending Minneapolis Center
Fri 05:56:45 PM 40.4681 -98.5447 19° North 214 246 12,200 -1,122 Descending Minneapolis Center
Fri 05:57:47 PM 40.5258 -98.5175 20° North 217 250 11,100 -1,113 Descending Minneapolis Center
Fri 05:58:49 PM 40.5861 -98.4908 19° North 223 257 9,900 -1,065 Descending Minneapolis Center
Fri 05:59:51 PM 40.6472 -98.4678 16° North 227 261 8,900 -968 Descending Minneapolis Center
Fri 06:00:53 PM 40.7064 -98.4472 15° North 225 259 7,900 -1,113 Descending Minneapolis Center
Fri 06:01:55 PM 40.7639 -98.4228 18° North 220 253 6,600 -1,355 Descending Minneapolis Center
Fri 06:02:57 PM 40.8253 -98.3992 16° North 224 258 5,100 -1,122 Descending Minneapolis Center
Fri 06:03:58 PM 40.9019 -98.3750 13° North 232 267 4,300 -683 Descending Minneapolis Center
Fri 06:05:00 PM 40.9525 -98.3600 13° North 209 241 3,700 -532 Descending Minneapolis Center
Fri 06:06:02 PM 40.9953 -98.3569 North 179 206 3,200 -581 Descending Minneapolis Center
Fri 06:07:04 PM 40.9967 -98.3172 87° East 155 178 2,500 -677 Descending Minneapolis Center

Login

Don't have an account? Register now (free) for customized features, flight alerts, and more!